Terminal Aerodrome Forecast
Issued by NWS Central Illinois

Home | Current Version | Previous Version | Text Only | Print | Product List | Glossary On
Versions: 1 2 3 4 5 6 7 8 9 10 11 12 13 14 15 16 17
000
FTUS43 KILX 301732
TAFSPI
TAF
KSPI 301732Z 3018/3118 25007KT P6SM VCSH SCT060 BKN250
     FM302200 23005KT P6SM SCT070 BKN250
     FM310200 VRB03KT P6SM SCT120
     FM311500 15007KT P6SM SCT050=

USA.gov is the U.S. government's official web portal to all federal, state and local government web resources and services.